createdAt,value
2023-04-29T00:00:44.073Z,11.13
2023-04-29T00:03:10.927Z,11.18
2023-04-29T00:05:37.888Z,11.18
2023-04-29T00:08:05.091Z,11.24
2023-04-29T00:10:31.727Z,11.24
2023-04-29T00:12:58.483Z,11.24
2023-04-29T00:15:25.146Z,11.26
2023-04-29T00:17:51.784Z,11.26
2023-04-29T00:20:18.827Z,11.24
2023-04-29T00:22:45.556Z,11.23
2023-04-29T00:25:12.383Z,11.21
2023-04-29T00:27:39.547Z,11.18
2023-04-29T00:30:08.332Z,11.16
2023-04-29T00:32:35.184Z,11.17
2023-04-29T00:35:02.389Z,11.20
2023-04-29T00:37:29.136Z,11.24
2023-04-29T00:39:55.764Z,11.22
2023-04-29T00:42:22.557Z,11.22
2023-04-29T00:44:49.191Z,11.26
2023-04-29T00:47:15.850Z,11.26
2023-04-29T00:49:42.511Z,11.26
2023-04-29T00:52:11.724Z,11.24
2023-04-29T00:54:39.190Z,11.24
2023-04-29T00:57:06.473Z,11.25
2023-04-29T00:59:34.573Z,11.25
2023-04-29T01:02:04.046Z,11.26
2023-04-29T01:04:31.747Z,11.25
2023-04-29T01:07:14.600Z,11.25
2023-04-29T01:09:41.755Z,11.22
2023-04-29T01:12:20.586Z,11.20
2023-04-29T01:15:11.071Z,11.17
2023-04-29T01:18:00.897Z,11.14
2023-04-29T01:20:29.054Z,11.11
2023-04-29T01:22:55.702Z,11.11
2023-04-29T01:25:22.839Z,11.11
2023-04-29T01:28:33.600Z,11.09
2023-04-29T01:31:11.473Z,11.04
2023-04-29T01:33:51.053Z,11.04
2023-04-29T01:36:44.544Z,11.01
2023-04-29T01:39:32.946Z,11.01
2023-04-29T01:42:34.762Z,10.99
2023-04-29T01:45:10.637Z,10.96
2023-04-29T01:47:39.265Z,10.96
2023-04-29T01:50:06.730Z,10.92
2023-04-29T01:52:33.593Z,10.87
2023-04-29T01:55:00.452Z,10.85
2023-04-29T01:57:36.440Z,10.85
2023-04-29T02:00:13.982Z,10.84
2023-04-29T02:02:42.224Z,10.87
2023-04-29T02:05:37.461Z,10.92
2023-04-29T02:08:05.764Z,10.95
2023-04-29T02:10:33.549Z,10.97
2023-04-29T02:13:20.224Z,10.97
2023-04-29T02:15:47.332Z,10.99
2023-04-29T02:18:14.727Z,10.98
2023-04-29T02:20:41.798Z,10.98
2023-04-29T02:23:08.654Z,10.96
2023-04-29T02:25:36.468Z,10.91
2023-04-29T02:28:03.304Z,10.93
2023-04-29T02:30:30.389Z,10.91
2023-04-29T02:32:57.372Z,10.93
2023-04-29T02:35:24.074Z,10.91
2023-04-29T02:37:50.721Z,10.92
2023-04-29T02:40:17.456Z,10.91
2023-04-29T02:42:44.493Z,10.93
2023-04-29T02:45:11.454Z,10.92
2023-04-29T02:47:38.292Z,10.90
2023-04-29T02:50:05.727Z,10.89
2023-04-29T02:52:32.805Z,10.87
2023-04-29T02:54:59.481Z,10.83
2023-04-29T02:57:26.176Z,10.81
2023-04-29T02:59:53.113Z,10.80
2023-04-29T03:02:19.987Z,10.83
2023-04-29T03:04:51.071Z,10.83
2023-04-29T03:07:18.142Z,10.80
2023-04-29T03:09:44.852Z,10.79
2023-04-29T03:12:13.154Z,10.80
2023-04-29T03:14:39.837Z,10.81
2023-04-29T03:17:06.680Z,10.81
2023-04-29T03:19:33.558Z,10.78
2023-04-29T03:22:00.346Z,10.80
2023-04-29T03:24:27.290Z,10.78
2023-04-29T03:26:53.995Z,10.74
2023-04-29T03:29:21.109Z,10.71
2023-04-29T03:31:47.875Z,10.70
2023-04-29T03:34:15.380Z,10.62
2023-04-29T03:36:48.277Z,10.57
2023-04-29T03:39:15.118Z,10.56
2023-04-29T03:41:42.772Z,10.55
2023-04-29T03:44:09.631Z,10.57
2023-04-29T03:46:36.465Z,10.52
2023-04-29T03:49:03.188Z,10.50
2023-04-29T03:51:30.242Z,10.50
2023-04-29T03:54:10.003Z,10.46
2023-04-29T03:56:37.159Z,10.45
2023-04-29T03:59:04.148Z,10.44
2023-04-29T04:01:31.194Z,10.43
2023-04-29T04:03:58.064Z,10.42
2023-04-29T04:06:25.012Z,10.41
2023-04-29T04:08:52.444Z,10.41
2023-04-29T04:11:25.985Z,10.37
2023-04-29T04:13:57.996Z,10.38
2023-04-29T04:16:24.946Z,10.36
2023-04-29T04:18:52.192Z,10.37
2023-04-29T04:21:19.000Z,10.33
2023-04-29T04:23:53.469Z,10.29
2023-04-29T04:26:23.162Z,10.30
2023-04-29T04:29:05.522Z,10.30
2023-04-29T04:31:52.584Z,10.35
2023-04-29T04:34:20.441Z,10.39
2023-04-29T04:36:49.770Z,10.39
2023-04-29T04:39:16.462Z,10.39
2023-04-29T04:41:43.299Z,10.41
2023-04-29T04:44:10.574Z,10.45
2023-04-29T04:47:02.821Z,10.49
2023-04-29T04:49:50.187Z,10.50
2023-04-29T04:52:20.527Z,10.57
2023-04-29T04:54:50.249Z,10.62
2023-04-29T04:57:22.436Z,10.66
2023-04-29T04:59:49.438Z,10.72
2023-04-29T05:02:16.550Z,10.74
2023-04-29T05:04:43.258Z,10.82
2023-04-29T05:07:11.166Z,10.93
2023-04-29T05:10:08.638Z,11.06
2023-04-29T05:12:42.650Z,11.16
2023-04-29T05:15:09.792Z,11.28
2023-04-29T05:17:37.143Z,11.47
2023-04-29T05:20:04.553Z,11.51
2023-04-29T05:22:33.300Z,11.60
2023-04-29T05:25:03.268Z,11.63
2023-04-29T05:27:32.079Z,11.66
2023-04-29T05:29:59.586Z,11.72
2023-04-29T05:32:26.378Z,11.81
2023-04-29T05:34:53.150Z,11.82
2023-04-29T05:37:20.401Z,11.84
2023-04-29T05:40:04.317Z,11.78
2023-04-29T05:42:32.096Z,11.94
2023-04-29T05:44:58.838Z,12.10
2023-04-29T05:47:25.606Z,12.16
2023-04-29T05:49:52.745Z,12.12
2023-04-29T05:52:19.608Z,12.07
2023-04-29T05:54:48.865Z,12.00
2023-04-29T05:57:15.670Z,11.92
2023-04-29T05:59:42.462Z,11.76
2023-04-29T06:02:11.017Z,11.71
2023-04-29T06:04:41.674Z,11.62
2023-04-29T06:07:14.853Z,11.58
2023-04-29T06:09:51.241Z,11.57
2023-04-29T06:12:18.201Z,11.55
2023-04-29T06:14:46.985Z,11.59
2023-04-29T06:17:13.811Z,11.59
2023-04-29T06:19:41.050Z,11.61
2023-04-29T06:22:09.427Z,11.60
2023-04-29T06:24:39.243Z,11.60
2023-04-29T06:27:07.425Z,11.61
2023-04-29T06:29:34.216Z,11.66
2023-04-29T06:32:02.664Z,11.73
2023-04-29T06:34:29.423Z,11.74
2023-04-29T06:37:25.288Z,11.69
2023-04-29T06:39:54.811Z,11.78
2023-04-29T06:42:40.702Z,11.87
2023-04-29T06:45:26.446Z,11.87
2023-04-29T06:48:01.728Z,11.83
2023-04-29T06:50:52.819Z,11.84
2023-04-29T06:53:20.116Z,11.84
2023-04-29T06:55:47.355Z,11.80
2023-04-29T06:58:18.576Z,11.82
2023-04-29T07:00:49.814Z,12.02
2023-04-29T07:03:18.181Z,12.51
2023-04-29T07:05:48.612Z,12.67
2023-04-29T07:08:15.318Z,13.03
2023-04-29T07:10:42.048Z,13.29
2023-04-29T07:13:08.953Z,13.45
2023-04-29T07:15:36.827Z,13.57
2023-04-29T07:18:05.474Z,13.44
2023-04-29T07:20:32.797Z,13.30
2023-04-29T07:22:59.633Z,13.10
2023-04-29T07:25:29.301Z,13.56
2023-04-29T07:27:56.719Z,13.61
2023-04-29T07:30:25.364Z,13.53
2023-04-29T07:32:52.276Z,13.28
2023-04-29T07:35:19.523Z,13.05
2023-04-29T07:37:46.461Z,13.05
2023-04-29T07:40:13.719Z,13.18
2023-04-29T07:42:40.712Z,13.16
2023-04-29T07:45:08.015Z,13.57
2023-04-29T07:47:34.733Z,14.33
2023-04-29T07:50:01.521Z,14.94
2023-04-29T07:52:29.392Z,15.30
2023-04-29T07:54:56.489Z,15.02
2023-04-29T07:57:23.455Z,14.52
2023-04-29T07:59:54.495Z,13.96
2023-04-29T08:02:21.831Z,13.67
2023-04-29T08:04:51.380Z,13.93
2023-04-29T08:07:18.618Z,14.34
2023-04-29T08:09:45.655Z,14.75
2023-04-29T08:12:12.664Z,15.28
2023-04-29T08:14:40.666Z,15.59
2023-04-29T08:17:08.372Z,15.71
2023-04-29T08:19:35.168Z,15.94
2023-04-29T08:22:04.196Z,16.15
2023-04-29T08:24:31.202Z,16.21
2023-04-29T08:26:59.286Z,16.15
2023-04-29T08:29:26.195Z,15.84
2023-04-29T08:31:53.152Z,15.33
2023-04-29T08:34:19.914Z,14.91
2023-04-29T08:36:46.572Z,14.62
2023-04-29T08:39:13.279Z,14.47
2023-04-29T08:41:40.028Z,14.58
2023-04-29T08:44:06.991Z,14.99
2023-04-29T08:46:33.984Z,15.55
2023-04-29T08:49:03.950Z,15.99
2023-04-29T08:51:32.375Z,15.56
2023-04-29T08:53:59.073Z,15.12
2023-04-29T08:56:28.159Z,14.90
2023-04-29T08:58:58.418Z,14.65
2023-04-29T09:01:29.253Z,14.54
2023-04-29T09:04:20.183Z,14.46
2023-04-29T09:06:48.475Z,14.39
2023-04-29T09:09:15.806Z,14.31
2023-04-29T09:11:42.491Z,14.32
2023-04-29T09:14:09.591Z,14.22
2023-04-29T09:16:38.364Z,14.27
2023-04-29T09:19:05.255Z,14.33
2023-04-29T09:21:35.531Z,14.36
2023-04-29T09:24:03.846Z,14.59
2023-04-29T09:26:43.016Z,14.75
2023-04-29T09:29:11.936Z,14.95
2023-04-29T09:31:42.221Z,14.96
2023-04-29T09:34:09.977Z,14.92
2023-04-29T09:36:51.241Z,15.00
2023-04-29T09:39:20.461Z,15.30
2023-04-29T09:41:53.206Z,15.79
2023-04-29T09:44:29.137Z,15.82
2023-04-29T09:46:57.698Z,15.72
2023-04-29T09:49:26.545Z,15.98
2023-04-29T09:52:00.924Z,15.89
2023-04-29T09:54:29.793Z,15.62
2023-04-29T09:56:58.833Z,15.66
2023-04-29T09:59:26.596Z,15.88
2023-04-29T10:01:55.840Z,15.91
2023-04-29T10:04:25.228Z,15.75
2023-04-29T10:06:53.981Z,15.72
2023-04-29T10:09:21.983Z,15.87
2023-04-29T10:11:51.481Z,15.57
2023-04-29T10:14:20.204Z,15.47
2023-04-29T10:16:48.334Z,15.51
2023-04-29T10:19:38.131Z,15.71
2023-04-29T10:22:12.411Z,15.66
2023-04-29T10:24:39.983Z,15.58
2023-04-29T10:27:08.381Z,15.55
2023-04-29T10:29:37.244Z,15.81
2023-04-29T10:32:07.720Z,16.15
2023-04-29T10:34:37.033Z,16.05
2023-04-29T10:37:03.745Z,16.35
2023-04-29T10:39:50.999Z,16.72
2023-04-29T10:42:28.167Z,17.42
2023-04-29T10:45:18.492Z,17.00
2023-04-29T10:48:06.777Z,16.42
2023-04-29T10:50:34.357Z,16.00
2023-04-29T10:53:05.506Z,15.92
2023-04-29T10:55:36.298Z,16.02
2023-04-29T10:58:04.635Z,16.31
2023-04-29T11:00:33.761Z,16.92
2023-04-29T11:03:02.277Z,17.24
2023-04-29T11:05:33.862Z,17.37
2023-04-29T11:08:24.237Z,17.29
2023-04-29T11:11:00.703Z,16.92
2023-04-29T11:13:29.617Z,16.73
2023-04-29T11:16:07.194Z,16.35
2023-04-29T11:18:35.508Z,16.36
2023-04-29T11:21:08.319Z,16.32
2023-04-29T11:23:41.235Z,16.23
2023-04-29T11:26:08.084Z,16.14
2023-04-29T11:28:35.027Z,16.04
2023-04-29T11:31:03.768Z,15.82
2023-04-29T11:33:32.975Z,15.67
2023-04-29T11:36:00.662Z,15.52
2023-04-29T11:38:31.519Z,15.67
2023-04-29T11:40:59.583Z,15.72
2023-04-29T11:43:26.626Z,15.88
2023-04-29T11:45:54.024Z,15.91
2023-04-29T11:48:22.164Z,15.87
2023-04-29T11:50:50.450Z,15.88
2023-04-29T11:53:20.623Z,15.87
2023-04-29T11:55:47.597Z,16.06
2023-04-29T11:58:18.124Z,16.19
2023-04-29T12:00:47.095Z,15.99
2023-04-29T12:03:15.220Z,15.76
2023-04-29T12:05:48.864Z,15.71
2023-04-29T12:08:15.734Z,15.71
2023-04-29T12:10:42.425Z,16.05
2023-04-29T12:13:10.409Z,16.80
2023-04-29T12:15:39.636Z,16.91
2023-04-29T12:18:07.428Z,16.77
2023-04-29T12:20:34.638Z,16.69
2023-04-29T12:23:20.431Z,16.96
2023-04-29T12:25:58.504Z,16.89
2023-04-29T12:28:26.193Z,16.65
2023-04-29T12:30:54.454Z,16.77
2023-04-29T12:33:26.863Z,16.88
2023-04-29T12:35:56.772Z,16.76
2023-04-29T12:38:31.251Z,17.00
2023-04-29T12:41:05.608Z,17.12
2023-04-29T12:43:36.513Z,17.07
2023-04-29T12:46:12.958Z,17.07
2023-04-29T12:48:41.783Z,16.83
2023-04-29T12:51:10.260Z,16.91
2023-04-29T12:53:37.032Z,16.67
2023-04-29T12:56:04.071Z,16.70
2023-04-29T12:58:31.243Z,16.81
2023-04-29T13:00:58.952Z,16.63
2023-04-29T13:03:26.905Z,16.67
2023-04-29T13:05:55.090Z,17.31
2023-04-29T13:08:22.894Z,17.83
2023-04-29T13:10:49.785Z,17.91
2023-04-29T13:13:16.435Z,17.80
2023-04-29T13:15:43.218Z,17.58
2023-04-29T13:18:09.955Z,17.29
2023-04-29T13:20:41.627Z,17.20
2023-04-29T13:23:09.296Z,17.27
2023-04-29T13:25:36.090Z,17.32
2023-04-29T13:28:03.277Z,17.18
2023-04-29T13:30:30.022Z,16.97
2023-04-29T13:33:03.974Z,16.68
2023-04-29T13:35:38.417Z,16.59
2023-04-29T13:38:05.380Z,16.44
2023-04-29T13:40:37.409Z,16.21
2023-04-29T13:45:38.952Z,16.51
2023-04-29T13:48:16.898Z,16.48
2023-04-29T13:53:38.654Z,16.40
2023-04-29T13:59:19.924Z,16.35
2023-04-29T14:02:23.197Z,16.44
2023-04-29T14:04:44.116Z,16.55
2023-04-29T14:07:10.917Z,16.41
2023-04-29T14:09:37.618Z,16.24
2023-04-29T14:12:04.417Z,16.25
2023-04-29T14:14:31.238Z,16.39
2023-04-29T14:16:58.153Z,16.39
2023-04-29T14:19:25.276Z,16.36
2023-04-29T14:21:52.146Z,16.22
2023-04-29T14:24:18.831Z,16.11
2023-04-29T14:26:45.495Z,15.97
2023-04-29T14:29:12.948Z,15.94
2023-04-29T14:31:39.709Z,16.07
2023-04-29T14:34:06.441Z,16.02
2023-04-29T14:36:33.205Z,15.86
2023-04-29T14:39:01.063Z,15.75
2023-04-29T14:41:28.134Z,15.83
2023-04-29T14:43:54.887Z,15.69
2023-04-29T14:46:22.460Z,15.77
2023-04-29T14:48:49.596Z,15.91
2023-04-29T14:51:16.526Z,15.94
2023-04-29T14:53:43.297Z,15.87
2023-04-29T14:56:10.034Z,15.81
2023-04-29T14:58:36.732Z,15.79
2023-04-29T15:01:03.443Z,15.79
2023-04-29T15:03:30.452Z,15.75
2023-04-29T15:05:58.134Z,15.49
2023-04-29T15:08:24.876Z,15.41
2023-04-29T15:10:51.926Z,15.43
2023-04-29T15:13:18.691Z,15.35
2023-04-29T15:15:45.582Z,15.36
2023-04-29T15:18:12.313Z,15.38
2023-04-29T15:20:39.108Z,15.36
2023-04-29T15:23:06.191Z,15.21
2023-04-29T15:25:34.694Z,15.07
2023-04-29T15:28:04.824Z,14.97
2023-04-29T15:30:32.355Z,14.98
2023-04-29T15:32:59.141Z,14.98
2023-04-29T15:35:26.087Z,14.89
2023-04-29T15:37:52.751Z,14.87
2023-04-29T15:40:20.247Z,14.87
2023-04-29T15:42:46.973Z,14.86
2023-04-29T15:45:13.998Z,14.92
2023-04-29T15:47:40.719Z,14.93
2023-04-29T15:50:09.604Z,14.81
2023-04-29T15:52:36.606Z,14.74
2023-04-29T15:55:03.959Z,14.71
2023-04-29T15:57:30.617Z,14.68
2023-04-29T15:59:57.397Z,14.66
2023-04-29T16:02:24.251Z,14.43
2023-04-29T16:04:50.999Z,14.31
2023-04-29T16:07:18.130Z,14.27
2023-04-29T16:09:44.808Z,14.20
2023-04-29T16:12:13.126Z,14.17
2023-04-29T16:14:39.841Z,14.20
2023-04-29T16:17:06.793Z,14.27
2023-04-29T16:19:35.990Z,14.25
2023-04-29T16:22:03.655Z,14.27
2023-04-29T16:24:30.405Z,14.25
2023-04-29T16:26:57.325Z,14.15
2023-04-29T16:29:24.026Z,14.01
2023-04-29T16:31:51.061Z,13.87
2023-04-29T16:34:17.773Z,13.71
2023-04-29T16:36:44.407Z,13.64
2023-04-29T16:39:11.101Z,13.63
2023-04-29T16:41:37.877Z,13.62
2023-04-29T16:44:04.814Z,13.58
2023-04-29T16:46:32.647Z,13.63
2023-04-29T16:48:59.606Z,13.49
2023-04-29T16:51:26.671Z,13.40
2023-04-29T16:53:53.666Z,13.41
2023-04-29T16:56:21.761Z,13.44
2023-04-29T16:58:48.877Z,13.38
2023-04-29T17:01:16.411Z,13.40
2023-04-29T17:03:43.216Z,13.36
2023-04-29T17:06:10.041Z,13.33
2023-04-29T17:08:36.881Z,13.11
2023-04-29T17:11:05.044Z,12.88
2023-04-29T17:13:32.049Z,12.89
2023-04-29T17:15:58.796Z,12.77
2023-04-29T17:18:25.983Z,12.70
2023-04-29T17:20:52.787Z,12.73
2023-04-29T17:23:19.463Z,12.78
2023-04-29T17:25:46.805Z,12.81
2023-04-29T17:28:13.537Z,12.77
2023-04-29T17:30:40.302Z,12.64
2023-04-29T17:33:07.137Z,12.65
2023-04-29T17:35:34.157Z,12.55
2023-04-29T17:38:01.281Z,12.56
2023-04-29T17:40:28.063Z,12.62
2023-04-29T17:42:54.748Z,12.54
2023-04-29T17:45:21.410Z,12.51
2023-04-29T17:47:48.477Z,12.45
2023-04-29T17:50:15.532Z,12.32
2023-04-29T17:52:42.846Z,12.28
2023-04-29T17:55:10.562Z,12.16
2023-04-29T17:57:38.327Z,12.17
2023-04-29T18:00:08.597Z,12.17
2023-04-29T18:02:35.453Z,12.06
2023-04-29T18:05:03.638Z,11.96
2023-04-29T18:07:30.540Z,11.98
2023-04-29T18:09:57.676Z,11.99
2023-04-29T18:12:24.932Z,11.91
2023-04-29T18:14:52.323Z,11.92
2023-04-29T18:17:19.476Z,11.89
2023-04-29T18:19:48.666Z,11.86
2023-04-29T18:22:15.961Z,11.83
2023-04-29T18:24:42.704Z,11.87
2023-04-29T18:27:09.350Z,11.91
2023-04-29T18:29:36.098Z,11.84
2023-04-29T18:32:03.861Z,11.76
2023-04-29T18:34:31.226Z,11.78
2023-04-29T18:36:58.009Z,11.82
2023-04-29T18:39:24.810Z,11.89
2023-04-29T18:41:52.049Z,11.87
2023-04-29T18:44:18.940Z,11.76
2023-04-29T18:46:45.653Z,11.67
2023-04-29T18:49:16.181Z,11.72
2023-04-29T18:51:46.867Z,11.73
2023-04-29T18:54:18.692Z,11.70
2023-04-29T18:56:47.117Z,11.67
2023-04-29T18:59:19.173Z,11.68
2023-04-29T19:01:47.317Z,11.69
2023-04-29T19:04:14.403Z,11.66
2023-04-29T19:06:41.986Z,11.60
2023-04-29T19:09:09.110Z,11.57
2023-04-29T19:11:36.284Z,11.58
2023-04-29T19:14:04.328Z,11.61
2023-04-29T19:16:31.005Z,11.56
2023-04-29T19:18:57.872Z,11.55
2023-04-29T19:21:24.590Z,11.50
2023-04-29T19:23:51.313Z,11.50
2023-04-29T19:26:18.001Z,11.45
2023-04-29T19:28:44.637Z,11.44
2023-04-29T19:31:12.288Z,11.44
2023-04-29T19:33:40.830Z,11.49
2023-04-29T19:36:07.954Z,11.49
2023-04-29T19:38:40.013Z,11.48
2023-04-29T19:41:07.021Z,11.37
2023-04-29T19:43:34.734Z,11.30
2023-04-29T19:46:02.100Z,11.34
2023-04-29T19:48:29.269Z,11.37
2023-04-29T19:50:59.495Z,11.41
2023-04-29T19:53:27.131Z,11.42
2023-04-29T19:55:54.290Z,11.42
2023-04-29T19:58:21.279Z,11.36
2023-04-29T20:00:48.246Z,11.39
2023-04-29T20:03:15.024Z,11.31
2023-04-29T20:05:41.903Z,11.26
2023-04-29T20:08:08.678Z,11.24
2023-04-29T20:10:35.424Z,11.26
2023-04-29T20:13:02.177Z,11.24
2023-04-29T20:15:29.007Z,11.23
2023-04-29T20:17:56.090Z,11.23
2023-04-29T20:20:24.326Z,11.15
2023-04-29T20:22:52.230Z,11.10
2023-04-29T20:25:19.067Z,11.08
2023-04-29T20:27:45.830Z,11.03
2023-04-29T20:30:12.797Z,11.03
2023-04-29T20:32:39.613Z,11.02
2023-04-29T20:35:06.688Z,10.96
2023-04-29T20:37:33.370Z,10.92
2023-04-29T20:40:00.251Z,10.92
2023-04-29T20:42:27.146Z,10.88
2023-04-29T20:44:53.914Z,10.82
2023-04-29T20:47:21.325Z,10.80
2023-04-29T20:49:48.039Z,10.75
2023-04-29T20:52:14.696Z,10.65
2023-04-29T20:54:41.569Z,10.60
2023-04-29T20:57:08.223Z,10.54
2023-04-29T20:59:34.926Z,10.46
2023-04-29T21:02:01.658Z,10.33
2023-04-29T21:04:28.578Z,10.29
2023-04-29T21:06:55.438Z,10.18
2023-04-29T21:09:22.394Z,10.01
2023-04-29T21:11:49.055Z,9.90
2023-04-29T21:14:15.804Z,9.91
2023-04-29T21:16:42.868Z,9.91
2023-04-29T21:19:09.566Z,9.91
2023-04-29T21:21:36.250Z,9.98
2023-04-29T21:24:03.096Z,10.03
2023-04-29T21:26:29.762Z,10.07
2023-04-29T21:28:56.453Z,10.13
2023-04-29T21:31:23.215Z,10.13
2023-04-29T21:33:50.075Z,10.16
2023-04-29T21:36:16.841Z,10.18
2023-04-29T21:38:43.617Z,10.09
2023-04-29T21:41:31.197Z,10.07
2023-04-29T21:44:00.169Z,10.10
2023-04-29T21:46:33.315Z,9.98
2023-04-29T21:49:01.110Z,9.92
2023-04-29T21:51:28.716Z,9.94
2023-04-29T21:53:55.497Z,9.88
2023-04-29T21:56:24.623Z,9.92
2023-04-29T21:58:52.630Z,9.94
2023-04-29T22:01:37.868Z,9.92
2023-04-29T22:04:04.562Z,9.87
2023-04-29T22:06:31.595Z,9.85
2023-04-29T22:08:58.323Z,9.84
2023-04-29T22:11:25.558Z,9.86
2023-04-29T22:13:52.309Z,9.82
2023-04-29T22:16:19.299Z,9.83
2023-04-29T22:18:46.411Z,9.85
2023-04-29T22:21:13.143Z,9.86
2023-04-29T22:23:39.857Z,9.80
2023-04-29T22:26:06.620Z,9.74
2023-04-29T22:28:33.339Z,9.69
2023-04-29T22:31:00.053Z,9.74
2023-04-29T22:33:26.797Z,9.70
2023-04-29T22:35:53.433Z,9.70
2023-04-29T22:38:20.066Z,9.70
2023-04-29T22:40:51.195Z,9.71
2023-04-29T22:43:18.370Z,9.70
2023-04-29T22:45:52.619Z,9.64
2023-04-29T22:48:19.865Z,9.61
2023-04-29T22:50:53.699Z,9.56
2023-04-29T22:53:21.496Z,9.58
2023-04-29T22:55:59.005Z,9.57
2023-04-29T22:58:26.694Z,9.57
2023-04-29T23:00:56.655Z,9.49
2023-04-29T23:03:24.290Z,9.49
2023-04-29T23:05:51.259Z,9.46
2023-04-29T23:08:17.964Z,9.48
2023-04-29T23:10:51.058Z,9.46
2023-04-29T23:13:18.139Z,9.53
2023-04-29T23:15:45.813Z,9.54
2023-04-29T23:18:12.585Z,9.53
2023-04-29T23:20:39.476Z,9.50
2023-04-29T23:23:06.311Z,9.49
2023-04-29T23:25:32.956Z,9.43
2023-04-29T23:27:59.648Z,9.41
2023-04-29T23:30:26.454Z,9.41
2023-04-29T23:32:53.308Z,9.40
2023-04-29T23:35:20.041Z,9.38
2023-04-29T23:37:46.699Z,9.36
2023-04-29T23:40:13.505Z,9.30
2023-04-29T23:42:40.307Z,9.31
2023-04-29T23:45:08.324Z,9.25
2023-04-29T23:47:35.031Z,9.22
2023-04-29T23:50:01.769Z,9.21
2023-04-29T23:52:28.441Z,9.20
2023-04-29T23:54:55.167Z,9.25
2023-04-29T23:57:22.014Z,9.31
2023-04-29T23:59:49.021Z,9.29
